Latest Weather Observations for Giles*

IDD60801

Issued at 8:35 pm CST Monday 20 October 2014 (issued every 30 minutes, with the page automatically refreshed every 10 minutes)

About weather observations | Map of weather stations | Latest weather observations for NT | Other Formats
Station Details ID: 013017 Name: GILES METEOROLOGICAL OFFICE Lat: -25.03 Lon: 128.30 Height: 598.0 m
Data from the previous 72 hours. | See also: Recent months at Giles*

* Giles observations are collected in the South Australia time zone, which includes daylight saving in the summer period. Therefore, Rain since 9am value is with respect to South Australia local time.

Date/Time
CST
Temp
°C
App
Temp
°C
Dew
Point
Rel
Hum
%
Delta-T
°C
Wind Press
QNH
hPa
Press
MSL
hPa
Rain
since 9 am
mm
Dir
 
Spd
km/h
Gust
km/h
Spd
kts
Gust
kts
20/08:30pm 30.9 26.4 -6.8 8 16.6 N 9 11 5 6 1016.2 - 0.0
20/08:00pm 31.2 26.7 -7.0 8 16.8 N 9 11 5 6 1015.8 1012.4 0.0
20/07:30pm 32.0 27.3 -9.3 6 17.6 NNW 9 11 5 6 1015.3 - 0.0
20/07:00pm 34.0 27.9 -13.2 4 19.2 NNW 15 20 8 11 1015.0 - 0.0
20/06:30pm 34.8 27.8 -15.7 3 19.9 NNW 19 26 10 14 1014.6 - 0.0
20/06:00pm 35.7 27.2 -19.5 2 20.7 NNW 26 37 14 20 1014.3 - 0.0
20/05:30pm 35.7 28.6 -18.0 2 20.6 NW 19 30 10 16 1014.1 - 0.0
20/05:00pm 36.6 26.9 -20.7 2 21.3 NNW 32 50 17 27 1014.0 1010.6 0.0
20/04:57pm 36.5 27.2 -21.8 2 21.3 NNW 30 48 16 26 1013.9 - 0.0
20/04:30pm 36.8 28.0 -17.3 2 21.2 NNW 28 44 15 24 1014.1 - 0.0
20/04:00pm 37.2 28.3 -19.8 2 21.6 NNW 28 46 15 25 1014.1 - 0.0
20/03:41pm 36.9 28.0 -21.2 2 21.5 NW 28 50 15 27 1014.2 - 0.0
20/03:30pm 37.7 30.2 -14.3 3 21.5 NNW 22 32 12 17 1014.3 - 0.0
20/03:00pm 36.7 29.1 -15.5 3 21.0 NNW 22 39 12 21 1014.7 - 0.0
20/02:41pm 37.1 28.4 -15.0 3 21.2 N 28 46 15 25 1014.7 - 0.0
20/02:30pm 36.3 26.9 -14.8 3 20.7 NNW 32 44 17 24 1015.0 - 0.0
20/02:04pm 36.3 26.8 -16.0 3 20.8 NNW 32 52 17 28 1015.3 - 0.0
20/02:00pm 36.4 27.0 -14.1 3 20.7 NNW 32 43 17 23 1015.5 1012.2 0.0
20/01:30pm 36.1 27.2 -19.2 2 20.9 N 28 50 15 27 1016.3 - 0.0
20/01:00pm 36.0 27.0 -13.6 4 20.4 N 30 44 16 24 1016.8 - 0.0
20/12:30pm 34.9 26.0 -12.1 4 19.6 NNW 30 44 16 24 1017.2 - 0.0
20/12:11pm 34.3 25.7 -12.6 4 19.3 NNW 28 46 15 25 1017.7 - 0.0
20/12:00pm 34.7 26.7 -15.5 3 19.8 N 24 35 13 19 1017.8 - 0.0
20/11:30am 34.2 24.7 -16.7 3 19.6 N 32 37 17 20 1018.3 - 0.0
20/11:00am 33.0 25.9 -14.3 4 18.7 N 20 24 11 13 1018.6 1015.3 0.0
20/10:30am 31.6 26.0 -11.4 5 17.6 NNW 13 19 7 10 1019.0 - 0.0
20/10:00am 30.2 26.4 -5.8 9 16.0 NW 6 13 3 7 1019.2 - 0.0
20/09:30am 28.6 24.9 -3.2 12 14.6 S 7 11 4 6 1019.4 - 0.0
20/09:00am 27.4 23.8 0.4 17 13.1 SSE 9 15 5 8 1019.3 - 0.0
20/08:30am 26.2 22.0 -0.7 17 12.7 SSW 11 19 6 10 1019.2 - 0.0
20/08:00am 25.2 20.1 -2.3 16 12.5 SSW 15 24 8 13 1018.8 1015.5 0.0
20/07:30am 25.6 20.4 -17.4 5 14.9 SW 9 11 5 6 1018.3 - 0.0
20/07:16am 25.3 16.3 -22.5 3 15.1 WSW 28 43 15 23 1017.7 - 0.0
20/07:00am 27.2 20.9 -16.7 5 15.7 N 15 24 8 13 1017.0 - 0.0
20/06:30am 26.5 19.1 -21.8 3 15.7 N 20 24 11 13 1016.4 - 0.0
20/06:00am 26.9 19.7 -21.6 3 15.9 N 19 26 10 14 1016.2 - 0.0
20/05:30am 26.2 19.0 -21.1 3 15.5 N 19 24 10 13 1015.9 - 0.0
20/05:00am 26.4 18.9 -22.7 3 15.7 N 20 28 11 15 1015.5 1012.2 0.0
20/04:30am 26.4 18.9 -22.6 3 15.7 N 20 26 11 14 1015.3 - 0.0
20/04:00am 26.8 19.3 -24.3 2 16.0 N 20 28 11 15 1015.1 - 0.0
20/03:30am 27.5 19.6 -23.0 3 16.3 NNE 22 30 12 16 1015.2 - 0.0
20/03:00am 26.8 19.5 -24.4 2 16.0 N 19 24 10 13 1015.4 - 0.0
20/02:30am 27.3 19.9 -27.7 2 16.4 N 19 22 10 12 1015.4 - 0.0
20/02:00am 28.7 21.1 -29.3 1 17.2 NNE 20 26 11 14 1015.4 1012.1 0.0
20/01:30am 28.9 21.4 -32.7 1 17.4 NNE 19 28 10 15 1015.4 - 0.0
20/01:00am 29.1 21.6 -32.5 1 17.5 NNE 19 30 10 16 1015.7 - 0.0
20/12:30am 30.1 22.1 -30.9 1 18.0 NNE 22 30 12 16 1015.9 - 0.0
20/12:00am 30.0 21.6 -29.3 1 17.9 NNE 24 32 13 17 1016.1 - 0.0
 
Date/Time
CST
Temp
°C
App
Temp
°C
Dew
Point
Rel
Hum
%
Delta-T
°C
Wind Press
QNH
hPa
Press
MSL
hPa
Rain
since 9 am
mm
Dir
 
Spd
km/h
Gust
km/h
Spd
kts
Gust
kts
19/11:30pm 30.3 21.5 -35.1 1 18.2 NNE 26 39 14 21 1016.3 - 0.0
19/11:00pm 30.6 22.1 -47.9 0 18.5 NNE 24 33 13 18 1016.2 1012.8 0.0
19/10:30pm 30.1 22.5 -31.0 1 18.0 NNE 20 26 11 14 1016.4 - 0.0
19/10:00pm 28.9 22.1 -20.5 3 16.9 NNE 17 20 9 11 1016.5 - 0.0
19/09:30pm 29.5 23.1 -18.5 3 17.1 NE 15 19 8 10 1016.3 - 0.0
19/09:00pm 30.1 23.2 -21.1 3 17.6 NNE 17 20 9 11 1016.0 - 0.0
19/08:30pm 30.1 23.6 -22.9 2 17.7 NNE 15 17 8 9 1015.7 - 0.0
19/08:00pm 30.9 23.8 -29.4 1 18.4 N 17 22 9 12 1015.5 1012.2 0.0
19/07:30pm 31.0 24.4 -27.6 1 18.4 N 15 17 8 9 1015.1 - 0.0
19/07:00pm 32.7 25.7 -29.2 1 19.4 N 17 24 9 13 1014.8 - 0.0
19/06:30pm 34.1 26.4 -40.2 0 20.4 N 20 28 11 15 1014.5 - 0.0
19/06:00pm 35.0 - - - - N 20 28 11 15 1014.2 - 0.0
19/05:30pm 35.5 - - - - N 24 32 13 17 1014.2 - 0.0
19/05:00pm 35.3 28.2 -29.6 1 20.9 NNE 17 26 9 14 1013.9 1010.4 0.0
19/04:30pm 34.9 29.5 -24.7 1 20.5 N 9 17 5 9 1014.0 - 0.0
19/04:00pm 35.3 28.9 -34.0 1 21.0 N 13 28 7 15 1014.1 - 0.0
19/03:30pm 35.9 27.5 -29.9 1 21.2 N 24 37 13 20 1014.3 - 0.0
19/03:00pm 36.0 28.0 -30.3 1 21.3 N 22 41 12 22 1014.8 - 0.0
19/02:30pm 35.4 26.9 -53.0 0 21.2 N 24 44 13 24 1015.0 - 0.0
19/02:00pm 35.0 27.3 -39.8 0 20.9 N 20 32 11 17 1015.4 1012.1 0.0
19/01:30pm 34.6 25.8 -31.0 1 20.5 NNW 26 37 14 20 1015.9 - 0.0
19/01:00pm 34.6 - - - - N 24 43 13 23 1016.3 - 0.0
19/12:30pm 33.9 - - - - N 24 37 13 20 1016.7 - 0.0
19/12:00pm 33.9 - - - - NNE 30 41 16 22 1017.0 - 0.0
19/11:37am 33.1 23.5 -39.2 0 19.8 NNE 30 48 16 26 1017.4 - 0.0
19/11:30am 32.5 22.5 -42.7 0 19.5 N 32 48 17 26 1017.4 - 0.0
19/11:00am 32.3 22.8 -31.0 1 19.2 NNE 30 43 16 23 1017.8 1014.4 0.0
19/10:30am 31.6 21.9 -43.0 0 19.0 N 30 43 16 23 1017.9 - 0.0
19/10:00am 30.5 20.8 -43.5 0 18.4 N 30 39 16 21 1018.1 - 0.0
19/09:30am 30.4 21.2 -33.2 1 18.2 N 28 39 15 21 1018.1 - 0.0
19/09:00am 29.2 20.1 -27.8 2 17.4 NNE 28 37 15 20 1018.0 - 0.0
19/08:30am 28.6 19.4 -36.7 1 17.3 N 28 35 15 19 1017.7 - 0.0
19/08:00am 28.0 19.2 -32.6 1 16.9 NNE 26 43 14 23 1017.5 1014.1 0.0
19/07:30am 27.1 18.6 -36.1 1 16.5 NNE 24 33 13 18 1017.2 - 0.0
19/07:00am 25.0 19.0 -35.1 1 15.4 NE 11 24 6 13 1016.9 - 0.0
19/06:57am 21.1 16.0 -29.0 2 13.3 E 7 17 4 9 1016.9 - 0.0
19/06:30am 16.0 12.2 -16.4 9 10.1 ESE 2 6 1 3 1016.7 - 0.0
19/06:00am 15.8 11.6 -17.3 9 10.1 ESE 4 7 2 4 1016.6 - 0.0
19/05:30am 16.3 11.6 -18.1 8 10.4 ESE 6 11 3 6 1016.4 - 0.0
19/05:00am 15.3 12.0 -13.1 13 9.4 CALM 0 6 0 3 1016.1 1012.7 0.0
19/04:30am 16.1 11.9 -15.9 10 10.1 N 4 9 2 5 1016.0 - 0.0
19/04:00am 20.0 15.2 -16.5 7 12.0 N 7 9 4 5 1016.1 - 0.0
19/03:30am 21.3 16.4 -12.5 9 12.2 N 9 9 5 5 1016.2 - 0.0
19/03:00am 22.8 17.6 -17.7 5 13.5 N 9 11 5 6 1016.2 - 0.0
19/02:30am 21.4 17.1 -8.6 12 11.7 N 7 9 4 5 1016.5 - 0.0
19/02:00am 21.2 16.7 -14.6 8 12.4 N 6 7 3 4 1016.6 1013.2 0.0
19/01:30am 24.2 19.1 -15.4 6 14.0 N 9 13 5 7 1016.9 - 0.0
19/01:00am 24.2 18.5 -20.3 4 14.4 N 11 13 6 7 1017.1 - 0.0
19/12:30am 24.6 18.5 -21.8 3 14.7 NNE 13 15 7 8 1017.4 - 0.0
19/12:00am 25.1 19.1 -18.1 5 14.7 NNE 13 17 7 9 1017.6 - 0.0
 
Date/Time
CST
Temp
°C
App
Temp
°C
Dew
Point
Rel
Hum
%
Delta-T
°C
Wind Press
QNH
hPa
Press
MSL
hPa
Rain
since 9 am
mm
Dir
 
Spd
km/h
Gust
km/h
Spd
kts
Gust
kts
18/11:30pm 25.9 19.6 -17.8 4 15.1 NNE 15 17 8 9 1017.6 - 0.0
18/11:00pm 25.6 19.2 -18.6 4 15.0 NNE 15 19 8 10 1017.6 1014.2 0.0
18/10:30pm 27.1 20.3 -18.7 4 15.8 NNE 17 19 9 10 1017.6 - 0.0
18/10:00pm 26.5 20.5 -17.6 4 15.4 NNE 13 15 7 8 1017.5 - 0.0
18/09:30pm 28.3 21.9 -19.4 3 16.5 NE 15 17 8 9 1017.2 - 0.0
18/09:00pm 28.1 22.1 -19.5 3 16.4 NE 13 17 7 9 1017.0 - 0.0
18/08:30pm 28.8 22.8 -19.8 3 16.8 NE 13 19 7 10 1016.9 - 0.0
18/08:00pm 28.9 22.9 -19.0 3 16.8 NE 13 17 7 9 1016.7 1013.3 0.0
18/07:30pm 29.4 23.5 -16.7 4 16.9 NE 13 17 7 9 1016.6 - 0.0
18/07:00pm 31.3 - - - - N 17 26 9 14 1016.3 - 0.0
18/06:30pm 32.3 - - - - N 19 28 10 15 1016.0 - 0.0
18/06:00pm 32.7 - - - - N 19 24 10 13 1015.7 - 0.0
18/05:30pm 33.5 - - - - NNE 17 22 9 12 1015.5 - 0.0
18/05:00pm 33.7 26.1 -30.3 1 20.0 NNE 20 37 11 20 1015.4 1012.1 0.0
18/04:30pm 33.7 26.7 -25.5 1 19.8 N 17 33 9 18 1015.7 - 0.0
18/04:00pm 33.4 25.4 -27.5 1 19.7 N 22 35 12 19 1015.7 - 0.0
18/03:30pm 33.4 25.8 -30.3 1 19.8 NNW 20 28 11 15 1015.9 - 0.0
18/03:00pm 33.4 25.1 -24.2 2 19.6 N 24 41 13 22 1016.2 - 0.0
18/02:30pm 33.0 26.3 -30.9 1 19.6 NNE 15 26 8 14 1016.7 - 0.0
18/02:00pm 32.7 25.2 -24.2 2 19.2 NNE 20 33 11 18 1017.0 1013.7 0.0
18/01:30pm 32.3 24.7 -44.3 0 19.4 NE 19 30 10 16 1017.6 - 0.0
18/01:00pm 33.2 25.6 -44.7 0 19.9 NNE 19 37 10 20 1018.2 - 0.0
18/12:30pm 32.0 23.5 -41.4 0 19.2 N 24 41 13 22 1018.6 - 0.0
18/12:00pm 31.8 22.6 -35.2 1 19.0 N 28 39 15 21 1019.2 - 0.0
18/11:30am 31.0 21.7 -52.4 0 18.7 N 28 35 15 19 1019.5 - 0.0
18/11:00am 30.2 21.7 -41.1 0 18.2 N 24 33 13 18 1019.8 1016.4 0.0
18/10:30am 28.9 19.7 -34.3 1 17.4 N 28 39 15 21 1019.8 - 0.0
18/10:00am 28.7 19.6 -27.3 2 17.1 NNE 28 41 15 22 1019.8 - 0.0
18/09:30am 28.3 19.6 -25.2 2 16.8 NNE 26 35 14 19 1019.7 - 0.0
18/09:00am 28.3 19.6 -27.7 2 16.9 NNE 26 43 14 23 1019.5 - 0.0
18/08:30am 27.8 19.0 -33.5 1 16.8 NNE 26 39 14 21 1019.5 - 0.0
18/08:00am 26.6 19.3 -25.1 2 15.9 N 19 24 10 13 1019.4 1016.0 0.0
18/07:30am 22.9 18.7 -10.2 10 12.7 SE 6 9 3 5 1018.9 - 0.0
18/07:00am 21.7 17.0 -14.3 8 12.6 NW 7 9 4 5 1018.7 - 0.0
18/06:30am 19.7 14.9 -16.1 8 11.8 E 7 11 4 6 1018.4 - 0.0
18/06:00am 18.7 14.0 -15.9 8 11.3 E 7 11 4 6 1018.0 - 0.0
18/05:30am 20.6 14.6 -17.8 6 12.4 E 13 15 7 8 1017.6 - 0.0
18/05:00am 20.7 16.4 -11.8 10 11.8 NE 6 7 3 4 1017.5 1014.1 0.0
18/04:30am 20.6 15.8 -17.8 6 12.4 NNE 7 9 4 5 1017.5 - 0.0
18/04:00am 21.5 16.9 -16.2 7 12.7 NNE 6 9 3 5 1017.4 - 0.0
18/03:30am 22.1 16.2 -16.2 6 13.0 ENE 13 17 7 9 1017.1 - 0.0
18/03:00am 22.6 16.5 -20.4 4 13.6 ENE 13 17 7 9 1017.2 - 0.0
18/02:30am 23.8 17.5 -17.7 5 14.0 NE 15 20 8 11 1017.5 - 0.0
18/02:00am 22.3 17.4 -12.5 9 12.7 NE 9 13 5 7 1017.8 1014.4 0.0
18/01:30am 25.1 18.7 -19.4 4 14.8 NE 15 20 8 11 1018.0 - 0.0
18/01:00am 24.3 18.5 -15.0 6 14.0 NNE 13 17 7 9 1018.2 - 0.0
18/12:30am 24.0 18.8 -16.6 6 14.0 NNE 9 15 5 8 1018.4 - 0.0
18/12:00am 23.9 18.0 -16.1 6 13.9 ENE 13 17 7 9 1018.5 - 0.0
 
Date/Time
CST
Temp
°C
App
Temp
°C
Dew
Point
Rel
Hum
%
Delta-T
°C
Wind Press
QNH
hPa
Press
MSL
hPa
Rain
since 9 am
mm
Dir
 
Spd
km/h
Gust
km/h
Spd
kts
Gust
kts
17/11:30pm 21.5 14.0 -24.7 3 13.3 E 20 28 11 15 1018.6 - 0.0
17/11:00pm 25.1 19.7 -13.8 7 14.3 NNE 11 13 6 7 1018.3 1014.9 0.0
17/10:30pm 25.5 20.1 -13.7 6 14.5 NNE 11 11 6 6 1018.3 - 0.0
17/10:00pm 25.7 20.8 -11.9 7 14.4 NNE 9 11 5 6 1018.4 - 0.0
17/09:30pm 26.0 21.2 -9.9 8 14.3 NNE 9 11 5 6 1018.6 - 0.0
17/09:00pm 26.8 22.2 -12.9 6 15.1 N 7 9 4 5 1018.5 - 0.0
17/08:30pm 27.3 22.4 -11.4 7 15.2 NNE 9 11 5 6 1018.2 - 0.0
17/08:00pm 28.1 23.6 -11.9 6 15.7 NE 7 9 4 5 1018.0 1014.6 0.0

Other Formats:

Comma delimited format used in spreadsheet applications
http://www.bom.gov.au/fwo/IDD60801/IDD60801.94461.axf

JavaScript Object Notation format (JSON) in row-major order
http://www.bom.gov.au/fwo/IDD60801/IDD60801.94461.json